Accueil
METAR-TAF:

METAR-TAF

Aéroports :

Aéroport de Brive-Vallée de la Dordogne

Brive-la-Gaillarde, France

latitude: 45-02-28N, longitude: 001-28-59E, altitude: 311 m

Observation

Le bulletin a été fait il y a 16 minutes, à 13:00 UTC
Vent 10 kt de nord/nord-est, variant entre nord-ouest et est/nord-est
Température 28°C
Humidité 32%
Pression 1018 hPa
Visibilité 10 km ou plus
pas de nuages en-dessous de 1500 mètres et pas de cumulonimbus.

METAR: LFSL 251300Z AUTO 03010KT 320V060 CAVOK 28/10 Q1018 NOSIG

Heure: 15:16 (13:16 UTC)

Prévision

Le bulletin a été fait il y a 2 heures et 16 minutes, à 11:00 UTC
Prévision valable du 25 à 12 UTC au 25 à 21 UTC
Vent 10 kt de est/nord-est
Visibilité 10 km ou plus
pas de nuages en-dessous de 1500 mètres et pas de cumulonimbus.
Evoluant progressivement
du 25 à 19 UTC au 25 à 21 UTC
Vent 2 kt de direction variable

TAF: LFSL 251100Z 2512/2521 06010KT CAVOK BECMG 2519/2521 VRB02KT

Observations et prévisions météorologiques de plus de 4000 aéroports (messages METAR et TAF).

Les stations disponibles sont représentées par des disques jaunes et rouges sur la carte.

Passer la souris dessus pour voir le nom de la station.

Cliquer dessus pour voir les observations et prévisions météorologiques.

Pour changer de carte: cliquez sur les boutons verts avec une croix noire pour zoomer, sur le bouton vert avec un tiret pour effectuer un zoom arrière, ou sur les flèches vertes pour les cartes adjacentes.


METAR-TAF: